ADDS METAR Data INFO
IDs: Format: Raw Decoded Include TAF

Data at: 0935 UTC 19 Jul 2018

METAR for:KDAY (Dayton/Cox Intl, OH, US)
Text:KDAY 190856Z 13007KT 10SM CLR 18/13 A3007 RMK AO2 SLP175 T01780133 55002
Temperature: 17.8°C ( 64°F)
Dewpoint: 13.3°C ( 56°F) [RH = 75%]
Pressure (altimeter):30.07 inches Hg (1018.4 mb) [Sea level pressure: 1017.5 mb]
Winds:from the SE (130 degrees) at 8 MPH (7 knots; 3.6 m/s)
Visibility:10 or more sm (16+ km)
Ceiling:at least 12,000 feet AGL
Clouds:sky clear below 12,000 feet AGL